»·PEaware :: N701GT KHAF-L70

N701GT :: KHAF-L70

FLIGHT INFORMATION

Flight Status: Arrived
Operator: Privately registered:
United States
More flights under this callsign
Pilot: Anonymous 17564 (17564)
Aircraft: CSA SportCruiser
(CRUZ)
More flights by this aircraft type
Origin: KHAF Half Moon Bay
United States
Destination: L70 Agua Dulce
United States
More flights between these airports :: More routes between these airports
Route: OSI V87 SNS V137 JEFFY V459 SAUGS
File this flight plan on PilotEdge
Remarks: P3Dv4.1 ORBX GLOBAL / VECTOR / NA openLC / SOCAL / NORCAL / PACNW / CTL RKIES / F1 GNS / ASP4 Weather Gen
Altitude:
(Current/Filed)
10,500ft
Speed:
(Current/Filed)
95kts
Departed: 25-Feb-18 07:46 AM
Arrived: 25-Feb-18 10:19 AM
Distance/Time
Traveled:
272nm/2:33
Distance/Time
To Go:
Arrived

Flight Plot

Page will automatically refresh every two minutes.

Flight plan parsing failed; only flown route is shown


Map Options




Map Legend


Flown Route
Filed Route
Departure Airport
Arrival Airport
Navaid (VOR, NDB)
Fix

Horizontal Profiles

Position Reports

Time Latitude Longitude Heading Altitude Ground
Speed
25-Feb-18 07:37 37.513947 -122.495650 302 70ft 0kts
25-Feb-18 07:38 37.513947 -122.495650 302 70ft 0kts
25-Feb-18 07:39 37.513947 -122.495650 302 70ft 0kts
25-Feb-18 07:40 37.513947 -122.495650 302 70ft 0kts
25-Feb-18 07:41 37.513947 -122.495650 302 70ft 0kts
25-Feb-18 07:42 37.513947 -122.495650 302 70ft 0kts
25-Feb-18 07:43 37.513948 -122.495651 302 70ft 0kts
25-Feb-18 07:44 37.513948 -122.495652 302 70ft 0kts
25-Feb-18 07:45 37.513948 -122.495652 302 70ft 0kts
25-Feb-18 07:46 37.513950 -122.495655 302 70ft 0kts
25-Feb-18 07:47 37.513951 -122.495657 302 70ft 0kts
25-Feb-18 07:48 37.513952 -122.495659 302 70ft 0kts
25-Feb-18 07:49 37.514353 -122.497581 305 70ft 14kts
25-Feb-18 07:50 37.516295 -122.501170 303 70ft 10kts
25-Feb-18 07:51 37.518599 -122.504604 318 70ft 14kts
25-Feb-18 07:52 37.518787 -122.506442 223 70ft 0kts
25-Feb-18 07:53 37.516326 -122.504550 138 72ft 73kts
25-Feb-18 07:54 37.500830 -122.482673 110 1233ft 88kts
25-Feb-18 07:55 37.486423 -122.451615 121 2065ft 119kts
25-Feb-18 07:56 37.466763 -122.416011 119 2590ft 126kts
25-Feb-18 07:57 37.447986 -122.381993 117 3007ft 109kts
25-Feb-18 07:58 37.431186 -122.351435 117 3476ft 102kts
25-Feb-18 07:59 37.410911 -122.314605 119 3504ft 111kts
25-Feb-18 08:00 37.396360 -122.288226 124 3519ft 111kts
25-Feb-18 08:01 37.369358 -122.269430 156 3525ft 118kts
25-Feb-18 08:02 37.338527 -122.253949 154 3518ft 120kts
25-Feb-18 08:03 37.307551 -122.238306 154 3500ft 115kts
25-Feb-18 08:04 37.278165 -122.223473 154 3516ft 113kts
25-Feb-18 08:05 37.248771 -122.208636 155 3522ft 116kts
25-Feb-18 08:06 37.220081 -122.194196 153 3892ft 101kts
25-Feb-18 08:07 37.195690 -122.181889 152 4586ft 80kts
25-Feb-18 08:08 37.177872 -122.172651 149 5327ft 66kts
25-Feb-18 08:09 37.159820 -122.163521 153 5910ft 78kts
25-Feb-18 08:10 37.137158 -122.152281 155 6394ft 94kts
25-Feb-18 08:11 37.111654 -122.139504 155 6765ft 100kts
25-Feb-18 08:12 37.086128 -122.126650 155 7316ft 97kts
25-Feb-18 08:13 37.061118 -122.114063 155 7835ft 95kts
25-Feb-18 08:14 37.037142 -122.101999 155 8326ft 91kts
25-Feb-18 08:15 37.013503 -122.090113 155 8757ft 90kts
25-Feb-18 08:16 36.990620 -122.078616 154 9212ft 86kts
25-Feb-18 08:17 36.972343 -122.062719 119 9665ft 79kts
25-Feb-18 08:18 36.957202 -122.039724 120 10207ft 85kts
25-Feb-18 08:19 36.941062 -122.015308 121 10557ft 110kts
25-Feb-18 08:20 36.919323 -121.983040 124 10494ft 119kts
25-Feb-18 08:21 36.898761 -121.952421 123 10499ft 113kts
25-Feb-18 08:22 36.878450 -121.922067 123 10499ft 114kts
25-Feb-18 08:23 36.858115 -121.891709 123 10498ft 113kts
25-Feb-18 08:24 36.837724 -121.861289 123 10499ft 114kts
25-Feb-18 08:25 36.817379 -121.830954 123 10499ft 114kts
25-Feb-18 08:26 36.796935 -121.800492 123 10499ft 114kts
25-Feb-18 08:27 36.776544 -121.770197 123 10500ft 113kts
25-Feb-18 08:28 36.756105 -121.739781 123 10522ft 121kts
25-Feb-18 08:29 36.733634 -121.706492 124 10477ft 119kts
25-Feb-18 08:30 36.712927 -121.675747 123 10519ft 120kts
25-Feb-18 08:31 36.690678 -121.642771 124 10499ft 126kts
25-Feb-18 08:32 36.667978 -121.609223 124 10489ft 122kts
25-Feb-18 08:33 36.651721 -121.581104 117 10480ft 117kts
25-Feb-18 08:34 36.633891 -121.548682 117 10508ft 113kts
25-Feb-18 08:35 36.612479 -121.509804 117 10486ft 114kts
25-Feb-18 08:36 36.597720 -121.483096 117 10499ft 111kts
25-Feb-18 08:37 36.580031 -121.451058 117 10498ft 112kts
25-Feb-18 08:38 36.562338 -121.419062 117 10495ft 112kts
25-Feb-18 08:39 36.544605 -121.387024 117 10494ft 112kts
25-Feb-18 08:40 36.526828 -121.354908 117 10493ft 112kts
25-Feb-18 08:41 36.509122 -121.322929 117 10493ft 112kts
25-Feb-18 08:42 36.492963 -121.293850 117 10502ft 113kts
25-Feb-18 08:43 36.474514 -121.260622 117 10505ft 119kts
25-Feb-18 08:44 36.455013 -121.225578 118 10487ft 123kts
25-Feb-18 08:45 36.435504 -121.190605 118 10468ft 119kts
25-Feb-18 08:46 36.417480 -121.158244 118 10487ft 112kts
25-Feb-18 08:47 36.399673 -121.126281 118 10486ft 112kts
25-Feb-18 08:48 36.381742 -121.094155 118 10486ft 113kts
25-Feb-18 08:49 36.363837 -121.062122 118 10484ft 112kts
25-Feb-18 08:50 36.345972 -121.030181 118 10482ft 112kts
25-Feb-18 08:51 36.328017 -120.998115 118 10481ft 113kts
25-Feb-18 08:52 36.310168 -120.966266 118 10485ft 112kts
25-Feb-18 08:53 36.292324 -120.934454 118 10484ft 112kts
25-Feb-18 08:54 36.274543 -120.902785 118 10483ft 112kts
25-Feb-18 08:55 36.256701 -120.871034 118 10483ft 112kts
25-Feb-18 08:56 36.238773 -120.839168 118 10481ft 112kts
25-Feb-18 08:57 36.220886 -120.807400 118 10481ft 112kts
25-Feb-18 08:58 36.202969 -120.775601 118 10480ft 113kts
25-Feb-18 08:59 36.184926 -120.743619 118 10484ft 113kts
25-Feb-18 09:00 36.166933 -120.711756 118 10479ft 112kts
25-Feb-18 09:01 36.148902 -120.679849 119 10478ft 113kts
25-Feb-18 09:02 36.129381 -120.649288 126 10477ft 113kts
25-Feb-18 09:03 36.108434 -120.619939 126 10485ft 114kts
25-Feb-18 09:04 36.087314 -120.590290 126 10488ft 115kts
25-Feb-18 09:05 36.065509 -120.559741 126 10466ft 118kts
25-Feb-18 09:06 36.043890 -120.529498 126 10485ft 118kts
25-Feb-18 09:07 36.021348 -120.497944 126 10479ft 124kts
25-Feb-18 09:08 35.998066 -120.465419 126 10434ft 121kts
25-Feb-18 09:09 35.976897 -120.435900 126 10487ft 114kts
25-Feb-18 09:10 35.955147 -120.405540 126 10458ft 117kts
25-Feb-18 09:11 35.934106 -120.376226 126 10489ft 115kts
25-Feb-18 09:12 35.911936 -120.345336 126 10472ft 121kts
25-Feb-18 09:13 35.889579 -120.314257 126 10454ft 118kts
25-Feb-18 09:14 35.868501 -120.284958 126 10480ft 114kts
25-Feb-18 09:15 35.847001 -120.255049 126 10493ft 119kts
25-Feb-18 09:16 35.823608 -120.222523 127 10220ft 131kts
25-Feb-18 09:17 35.799530 -120.189197 128 9634ft 132kts
25-Feb-18 09:18 35.775893 -120.156515 129 9450ft 118kts
25-Feb-18 09:19 35.754916 -120.127485 128 9474ft 112kts
25-Feb-18 09:20 35.734119 -120.098711 128 9494ft 114kts
25-Feb-18 09:21 35.712166 -120.068377 128 9493ft 122kts
25-Feb-18 09:22 35.688976 -120.036381 129 9477ft 124kts
25-Feb-18 09:23 35.665700 -120.004295 129 9478ft 124kts
25-Feb-18 09:24 35.642471 -119.972361 129 9443ft 120kts
25-Feb-18 09:25 35.620258 -119.942488 129 9483ft 120kts
25-Feb-18 09:26 35.596860 -119.910991 129 9471ft 125kts
25-Feb-18 09:27 35.573435 -119.879517 129 9446ft 119kts
25-Feb-18 09:28 35.552003 -119.850729 129 9504ft 117kts
25-Feb-18 09:29 35.528920 -119.819763 129 9456ft 120kts
25-Feb-18 09:30 35.507039 -119.790418 129 9498ft 119kts
25-Feb-18 09:31 35.483740 -119.759211 129 9473ft 122kts
25-Feb-18 09:32 35.460835 -119.728568 129 9470ft 119kts
25-Feb-18 09:33 35.438750 -119.699034 129 9463ft 114kts
25-Feb-18 09:34 35.417702 -119.670882 129 9507ft 116kts
25-Feb-18 09:35 35.394760 -119.640274 129 9459ft 119kts
25-Feb-18 09:36 35.372972 -119.611227 129 9468ft 113kts
25-Feb-18 09:37 35.352146 -119.583455 129 9479ft 110kts
25-Feb-18 09:38 35.331370 -119.555777 129 9492ft 112kts
25-Feb-18 09:39 35.309762 -119.527038 129 9479ft 114kts
25-Feb-18 09:40 35.288210 -119.498395 129 9481ft 114kts
25-Feb-18 09:41 35.268436 -119.472136 129 9473ft 113kts
25-Feb-18 09:42 35.247401 -119.444209 129 9495ft 113kts
25-Feb-18 09:43 35.225402 -119.415042 129 9493ft 118kts
25-Feb-18 09:44 35.202578 -119.384827 129 9468ft 118kts
25-Feb-18 09:45 35.180712 -119.355892 129 9466ft 112kts
25-Feb-18 09:46 35.161740 -119.330776 128 9483ft 108kts
25-Feb-18 09:47 35.141225 -119.303649 129 9482ft 107kts
25-Feb-18 09:48 35.120826 -119.276697 129 9507ft 113kts
25-Feb-18 09:49 35.098540 -119.247320 129 9459ft 114kts
25-Feb-18 09:50 35.077890 -119.220095 129 9507ft 113kts
25-Feb-18 09:51 35.055617 -119.190807 129 9455ft 114kts
25-Feb-18 09:52 35.035033 -119.163711 129 9485ft 107kts
25-Feb-18 09:53 35.014807 -119.137097 129 9499ft 109kts
25-Feb-18 09:54 34.993483 -119.109096 129 9487ft 113kts
25-Feb-18 09:55 34.971902 -119.080784 129 9496ft 115kts
25-Feb-18 09:56 34.949987 -119.052067 129 9466ft 112kts
25-Feb-18 09:57 34.929463 -119.025133 129 9506ft 110kts
25-Feb-18 09:58 34.907971 -118.997016 129 9475ft 111kts
25-Feb-18 09:59 34.887623 -118.970376 129 9492ft 106kts
25-Feb-18 10:00 34.867323 -118.943823 129 9494ft 106kts
25-Feb-18 10:01 34.847108 -118.917410 129 9505ft 108kts
25-Feb-18 10:02 34.826219 -118.890171 129 9489ft 109kts
25-Feb-18 10:03 34.805875 -118.863616 128 9502ft 106kts
25-Feb-18 10:04 34.797424 -118.830646 99 9502ft 102kts
25-Feb-18 10:05 34.790323 -118.796813 101 9522ft 107kts
25-Feb-18 10:06 34.782590 -118.760632 101 9496ft 110kts
25-Feb-18 10:07 34.774991 -118.725104 101 9520ft 111kts
25-Feb-18 10:08 34.767028 -118.687968 101 9510ft 114kts
25-Feb-18 10:09 34.759015 -118.650659 101 9479ft 109kts
25-Feb-18 10:10 34.751754 -118.616736 101 9505ft 102kts
25-Feb-18 10:11 34.733141 -118.594583 163 9512ft 108kts
25-Feb-18 10:12 34.704939 -118.584703 161 8994ft 102kts
25-Feb-18 10:13 34.678039 -118.574183 151 8497ft 100kts
25-Feb-18 10:14 34.652935 -118.559265 151 8001ft 100kts
25-Feb-18 10:15 34.627809 -118.544501 152 7507ft 100kts
25-Feb-18 10:16 34.602368 -118.529572 152 7044ft 105kts
25-Feb-18 10:17 34.575474 -118.513851 153 6520ft 105kts
25-Feb-18 10:18 34.549775 -118.498795 153 6043ft 105kts
25-Feb-18 10:19 34.522677 -118.482956 153 5507ft 105kts
25-Feb-18 10:20 34.497740 -118.466538 122 4996ft 101kts
25-Feb-18 10:21 34.497916 -118.432717 86 4505ft 107kts
25-Feb-18 10:22 34.499384 -118.396257 86 3919ft 94kts
25-Feb-18 10:23 34.500609 -118.366655 86 3953ft 86kts
25-Feb-18 10:24 34.489211 -118.344905 117 3631ft 67kts
25-Feb-18 10:25 34.494264 -118.328103 51 2856ft 51kts
25-Feb-18 10:26 34.502238 -118.315180 52 2605ft 21kts
25-Feb-18 10:27 34.502971 -118.314795 49 2605ft 7kts
25-Feb-18 10:28 34.503201 -118.314854 323 2605ft 0kts
25-Feb-18 10:29 34.503201 -118.314854 323 2605ft 0kts
25-Feb-18 10:30 34.503201 -118.314854 323 2605ft 0kts
25-Feb-18 10:31 34.503201 -118.314854 323 2605ft 0kts
25-Feb-18 10:32 34.503201 -118.314854 323 2605ft 0kts
25-Feb-18 10:33 34.503201 -118.314854 323 2605ft 0kts
25-Feb-18 10:34 34.503201 -118.314854 323 2605ft 0kts
25-Feb-18 10:35 34.503201 -118.314854 323 2605ft 0kts
25-Feb-18 10:36 34.503201 -118.314854 323 2605ft 0kts
25-Feb-18 10:37 34.503201 -118.314854 323 2605ft 0kts
25-Feb-18 10:38 34.503201 -118.314854 323 2605ft 0kts
25-Feb-18 10:39 34.503201 -118.314854 323 2605ft 0kts
25-Feb-18 10:40 34.503201 -118.314854 323 2605ft 0kts

Navigation Log

Ident Type
Flight plan parsing failed, navigation log unavailable